Time,TemperatureF,DewpointF,PressureIn,WindDirection,WindDirectionDegrees,WindSpeedMPH,WindSpeedGustMPH,Humidity,HourlyPrecipIn,Conditions,Clouds,dailyrainin,SolarRadiationWatts/m^2,SoftwareType,DateUTC
2013-01-14 00:02:00,13.6,11.2,30.34,NW,319,0.0,0.0,90,0.00,,CLR,0.00,0.00,VWS V14.01,2013-01-14 06:02:00,
2013-01-14 00:07:00,13.5,11.1,30.34,NW,319,0.0,0.0,90,0.00,,CLR,0.00,0.00,VWS V14.01,2013-01-14 06:07:00,
2013-01-14 00:12:00,13.3,10.9,30.34,NW,319,0.0,0.0,90,0.00,,CLR,0.00,0.00,VWS V14.01,2013-01-14 06:12:00,
2013-01-14 00:17:00,13.2,10.6,30.34,NW,319,0.0,0.0,89,0.00,,CLR,0.00,0.00,VWS V14.01,2013-01-14 06:17:00,
2013-01-14 00:22:00,13.1,10.5,30.34,NW,319,0.0,0.0,89,0.00,,CLR,0.00,0.00,VWS V14.01,2013-01-14 06:22:00,
2013-01-14 00:27:00,13.0,10.4,30.34,NW,319,0.0,0.0,89,0.00,,CLR,0.00,0.00,VWS V14.01,2013-01-14 06:27:00,
2013-01-14 00:32:00,12.9,10.3,30.35,NW,319,0.0,0.0,89,0.00,,CLR,0.00,0.00,VWS V14.01,2013-01-14 06:32:00,
2013-01-14 00:37:00,12.8,10.2,30.35,NW,319,0.0,0.0,89,0.00,,CLR,0.00,0.00,VWS V14.01,2013-01-14 06:37:00,
2013-01-14 00:42:00,12.7,10.1,30.35,NW,319,0.0,0.0,89,0.00,,CLR,0.00,0.00,VWS V14.01,2013-01-14 06:42:00,
2013-01-14 00:47:00,12.7,10.1,30.35,NW,319,0.0,0.0,89,0.00,,CLR,0.00,0.00,VWS V14.01,2013-01-14 06:47:00,
2013-01-14 00:52:00,12.6,10.0,30.35,NW,319,0.0,0.0,89,0.00,,CLR,0.00,0.00,VWS V14.01,2013-01-14 06:52:00,
2013-01-14 00:58:00,12.4,9.8,30.35,NW,319,0.0,0.0,89,0.00,,CLR,0.00,0.00,VWS V14.01,2013-01-14 06:58:00,
2013-01-14 01:03:00,12.4,9.8,30.36,NW,319,0.0,0.0,89,0.00,,CLR,0.00,0.00,VWS V14.01,2013-01-14 07:03:00,
2013-01-14 01:08:00,12.3,9.7,30.36,NW,319,0.0,0.0,89,0.00,,CLR,0.00,0.00,VWS V14.01,2013-01-14 07:08:00,
2013-01-14 01:13:00,12.2,9.6,30.36,NW,319,0.0,0.0,89,0.00,,CLR,0.00,0.00,VWS V14.01,2013-01-14 07:13:00,
2013-01-14 01:18:00,12.1,9.5,30.37,NW,319,0.0,0.0,89,0.00,,CLR,0.00,0.00,VWS V14.01,2013-01-14 07:18:00,
2013-01-14 01:23:00,12.1,9.5,30.37,NW,319,0.0,0.0,89,0.00,,CLR,0.00,0.00,VWS V14.01,2013-01-14 07:23:00,
2013-01-14 01:28:00,12.1,9.7,30.37,NW,319,0.0,0.0,90,0.00,,CLR,0.00,0.00,VWS V14.01,2013-01-14 07:28:00,
2013-01-14 01:33:00,12.1,9.7,30.37,NW,319,0.0,0.0,90,0.00,,CLR,0.00,0.00,VWS V14.01,2013-01-14 07:33:00,
2013-01-14 01:38:00,12.1,9.7,30.37,NW,319,0.0,0.0,90,0.00,,CLR,0.00,0.00,VWS V14.01,2013-01-14 07:38:00,
2013-01-14 01:43:00,12.1,9.7,30.37,NW,319,0.0,0.0,90,0.00,,CLR,0.00,0.00,VWS V14.01,2013-01-14 07:43:00,
2013-01-14 01:48:00,12.1,9.7,30.38,NW,319,0.0,0.0,90,0.00,,CLR,0.00,0.00,VWS V14.01,2013-01-14 07:48:00,
2013-01-14 01:53:00,12.1,9.7,30.38,NW,319,0.0,0.0,90,0.00,,CLR,0.00,0.00,VWS V14.01,2013-01-14 07:53:00,
2013-01-14 01:58:00,12.1,9.7,30.38,NW,319,0.0,0.0,90,0.00,,CLR,0.00,0.00,VWS V14.01,2013-01-14 07:58:00,
2013-01-14 02:04:00,12.1,9.7,30.38,NW,319,0.0,0.0,90,0.00,,CLR,0.00,0.00,VWS V14.01,2013-01-14 08:04:00,
2013-01-14 02:09:00,12.0,9.6,30.38,NW,319,0.0,0.0,90,0.00,,CLR,0.00,0.00,VWS V14.01,2013-01-14 08:09:00,
2013-01-14 02:14:00,12.0,9.6,30.38,NW,319,0.0,0.0,90,0.00,,CLR,0.00,0.00,VWS V14.01,2013-01-14 08:14:00,
2013-01-14 02:19:00,12.0,9.6,30.37,NW,319,0.0,0.0,90,0.00,,CLR,0.00,0.00,VWS V14.01,2013-01-14 08:19:00,
2013-01-14 02:24:00,11.9,9.5,30.37,NW,319,0.0,0.0,90,0.00,,CLR,0.00,0.00,VWS V14.01,2013-01-14 08:24:00,
2013-01-14 02:29:00,11.8,9.4,30.37,NW,319,0.0,0.0,90,0.00,,CLR,0.00,0.00,VWS V14.01,2013-01-14 08:29:00,
2013-01-14 02:34:00,11.8,9.4,30.38,NW,319,0.0,0.0,90,0.00,,CLR,0.00,0.00,VWS V14.01,2013-01-14 08:34:00,
2013-01-14 02:39:00,11.7,9.3,30.38,NW,319,0.0,0.0,90,0.00,,CLR,0.00,0.00,VWS V14.01,2013-01-14 08:39:00,
2013-01-14 02:44:00,11.7,9.3,30.38,NW,319,0.0,0.0,90,0.00,,CLR,0.00,0.00,VWS V14.01,2013-01-14 08:44:00,
2013-01-14 02:49:00,11.6,9.2,30.38,NW,319,0.0,0.0,90,0.00,,CLR,0.00,0.00,VWS V14.01,2013-01-14 08:49:00,
2013-01-14 02:54:00,11.5,9.1,30.38,NW,319,0.0,0.0,90,0.00,,CLR,0.00,0.00,VWS V14.01,2013-01-14 08:54:00,
2013-01-14 02:59:00,11.3,8.7,30.38,NW,319,0.0,0.0,89,0.00,,CLR,0.00,0.00,VWS V14.01,2013-01-14 08:59:00,
2013-01-14 03:04:00,11.1,8.8,30.38,NW,319,0.0,0.0,90,0.00,,CLR,0.00,0.00,VWS V14.01,2013-01-14 09:04:00,
2013-01-14 03:09:00,11.0,8.4,30.38,NW,319,0.0,0.0,89,0.00,,CLR,0.00,0.00,VWS V14.01,2013-01-14 09:09:00,
2013-01-14 03:14:00,10.8,8.2,30.38,NW,319,0.0,0.0,89,0.00,,CLR,0.00,0.00,VWS V14.01,2013-01-14 09:14:00,
2013-01-14 03:19:00,10.7,8.1,30.38,NW,319,0.0,0.0,89,0.00,,CLR,0.00,0.00,VWS V14.01,2013-01-14 09:19:00,
2013-01-14 03:24:00,10.7,8.1,30.38,NW,319,0.0,0.0,89,0.00,,CLR,0.00,0.00,VWS V14.01,2013-01-14 09:24:00,
2013-01-14 03:29:00,10.6,8.0,30.38,NW,319,0.0,0.0,89,0.00,,CLR,0.00,0.00,VWS V14.01,2013-01-14 09:29:00,
2013-01-14 03:35:00,10.6,8.0,30.38,NW,319,0.0,0.0,89,0.00,,CLR,0.00,0.00,VWS V14.01,2013-01-14 09:35:00,
2013-01-14 03:40:00,10.5,7.9,30.38,NW,319,0.0,0.0,89,0.00,,CLR,0.00,0.00,VWS V14.01,2013-01-14 09:40:00,
2013-01-14 03:45:00,10.4,7.8,30.37,NW,319,0.0,0.0,89,0.00,,CLR,0.00,0.00,VWS V14.01,2013-01-14 09:45:00,
2013-01-14 03:50:00,10.3,7.7,30.37,NW,319,0.0,0.0,89,0.00,,CLR,0.00,0.00,VWS V14.01,2013-01-14 09:50:00,
2013-01-14 03:55:00,10.1,7.5,30.37,NW,319,0.0,0.0,89,0.00,,CLR,0.00,0.00,VWS V14.01,2013-01-14 09:55:00,
2013-01-14 04:00:00,9.9,7.3,30.37,NW,319,0.0,0.0,89,0.00,,CLR,0.00,0.00,VWS V14.01,2013-01-14 10:00:00,
2013-01-14 04:05:00,9.9,7.3,30.37,NW,319,0.0,0.0,89,0.00,,CLR,0.00,0.00,VWS V14.01,2013-01-14 10:05:00,
2013-01-14 04:10:00,9.9,7.3,30.37,NW,319,0.0,0.0,89,0.00,,CLR,0.00,0.00,VWS V14.01,2013-01-14 10:10:00,
2013-01-14 04:15:00,9.9,7.3,30.37,NW,319,0.0,0.0,89,0.00,,CLR,0.00,0.00,VWS V14.01,2013-01-14 10:15:00,
2013-01-14 04:20:00,9.7,7.1,30.37,NW,319,0.0,0.0,89,0.00,,CLR,0.00,0.00,VWS V14.01,2013-01-14 10:20:00,
2013-01-14 04:25:00,9.7,7.1,30.37,NW,319,0.0,0.0,89,0.00,,CLR,0.00,0.00,VWS V14.01,2013-01-14 10:25:00,
2013-01-14 04:30:00,9.6,7.0,30.36,NW,319,0.0,0.0,89,0.00,,CLR,0.00,0.00,VWS V14.01,2013-01-14 10:30:00,
2013-01-14 04:35:00,9.5,6.9,30.36,NW,319,0.0,0.0,89,0.00,,CLR,0.00,0.00,VWS V14.01,2013-01-14 10:35:00,
2013-01-14 04:40:00,9.4,6.8,30.36,NW,319,0.0,0.0,89,0.00,,CLR,0.00,0.00,VWS V14.01,2013-01-14 10:40:00,
2013-01-14 04:45:00,9.3,6.7,30.35,NW,319,0.0,0.0,89,0.00,,CLR,0.00,0.00,VWS V14.01,2013-01-14 10:45:00,
2013-01-14 04:50:00,9.3,6.7,30.35,NW,319,0.0,0.0,89,0.00,,CLR,0.00,0.00,VWS V14.01,2013-01-14 10:50:00,
2013-01-14 04:56:00,9.2,6.6,30.35,NW,319,0.0,0.0,89,0.00,,CLR,0.00,0.00,VWS V14.01,2013-01-14 10:56:00,
2013-01-14 05:01:00,9.2,6.6,30.34,NW,319,0.0,0.0,89,0.00,,CLR,0.00,0.00,VWS V14.01,2013-01-14 11:01:00,
2013-01-14 05:06:00,9.1,6.5,30.34,NW,319,0.0,0.0,89,0.00,,CLR,0.00,0.00,VWS V14.01,2013-01-14 11:06:00,
2013-01-14 05:11:00,9.1,6.5,30.34,NW,319,0.0,0.0,89,0.00,,CLR,0.00,0.00,VWS V14.01,2013-01-14 11:11:00,
2013-01-14 05:16:00,9.0,6.4,30.33,NW,319,0.0,0.0,89,0.00,,CLR,0.00,0.00,VWS V14.01,2013-01-14 11:16:00,
2013-01-14 05:21:00,9.2,6.6,30.33,NW,319,0.0,0.0,89,0.00,,CLR,0.00,0.00,VWS V14.01,2013-01-14 11:21:00,
2013-01-14 05:26:00,9.4,7.1,30.33,NW,319,0.0,0.0,90,0.00,,CLR,0.00,0.00,VWS V14.01,2013-01-14 11:26:00,
2013-01-14 05:31:00,9.6,7.3,30.33,NW,319,0.0,0.0,90,0.00,,CLR,0.00,0.00,VWS V14.01,2013-01-14 11:31:00,
2013-01-14 05:36:00,9.8,7.5,30.33,NW,319,0.0,0.0,90,0.00,,CLR,0.00,0.00,VWS V14.01,2013-01-14 11:36:00,
2013-01-14 05:41:00,9.9,7.6,30.33,NW,319,0.0,0.0,90,0.00,,CLR,0.00,0.00,VWS V14.01,2013-01-14 11:41:00,
2013-01-14 05:46:00,9.9,7.8,30.33,NW,319,0.0,0.0,91,0.00,,CLR,0.00,0.00,VWS V14.01,2013-01-14 11:46:00,
2013-01-14 05:51:00,10.0,7.9,30.33,NW,319,0.0,0.0,91,0.00,,CLR,0.00,0.00,VWS V14.01,2013-01-14 11:51:00,
2013-01-14 05:56:00,10.1,8.0,30.33,NW,319,0.0,0.0,91,0.00,,CLR,0.00,0.00,VWS V14.01,2013-01-14 11:56:00,
2013-01-14 06:01:00,10.2,8.1,30.35,NW,319,0.0,0.0,91,0.00,,CLR,0.00,0.00,VWS V14.01,2013-01-14 12:01:00,
2013-01-14 06:06:00,10.3,8.2,30.35,NW,319,0.0,0.0,91,0.00,,CLR,0.00,0.00,VWS V14.01,2013-01-14 12:06:00,
2013-01-14 06:11:00,10.3,8.2,30.35,NW,319,0.0,0.0,91,0.00,,CLR,0.00,0.00,VWS V14.01,2013-01-14 12:11:00,
2013-01-14 06:16:00,10.4,8.3,30.36,NW,319,0.0,0.0,91,0.00,,CLR,0.00,0.00,VWS V14.01,2013-01-14 12:16:00,
2013-01-14 06:21:00,10.4,8.3,30.36,NW,319,0.0,0.0,91,0.00,,CLR,0.00,0.00,VWS V14.01,2013-01-14 12:21:00,
2013-01-14 06:26:00,10.5,8.4,30.36,NW,319,0.0,0.0,91,0.00,,CLR,0.00,0.00,VWS V14.01,2013-01-14 12:26:00,
2013-01-14 06:31:00,10.6,8.5,30.37,NW,319,0.0,0.0,91,0.00,,CLR,0.00,0.00,VWS V14.01,2013-01-14 12:31:00,
2013-01-14 06:36:00,10.7,8.6,30.37,NW,319,0.0,0.0,91,0.00,,CLR,0.00,0.00,VWS V14.01,2013-01-14 12:36:00,
2013-01-14 06:42:00,10.8,8.7,30.37,NW,319,0.0,0.0,91,0.00,,CLR,0.00,0.00,VWS V14.01,2013-01-14 12:42:00,
2013-01-14 06:47:00,10.8,8.7,30.38,NW,319,0.0,0.0,91,0.00,,CLR,0.00,0.00,VWS V14.01,2013-01-14 12:47:00,
2013-01-14 06:52:00,10.9,8.8,30.38,NW,319,0.0,0.0,91,0.00,,CLR,0.00,0.00,VWS V14.01,2013-01-14 12:52:00,
2013-01-14 06:57:00,11.0,8.9,30.38,NW,319,0.0,0.0,91,0.00,,CLR,0.00,0.00,VWS V14.01,2013-01-14 12:57:00,
2013-01-14 07:02:00,11.2,9.1,30.36,NW,319,0.0,0.0,91,0.00,,CLR,0.00,0.00,VWS V14.01,2013-01-14 13:02:00,
2013-01-14 07:07:00,11.3,9.2,30.36,NW,319,0.0,0.0,91,0.00,,CLR,0.00,0.00,VWS V14.01,2013-01-14 13:07:00,
2013-01-14 07:12:00,11.4,9.3,30.36,NW,319,0.0,0.0,91,0.00,,CLR,0.00,0.00,VWS V14.01,2013-01-14 13:12:00,
2013-01-14 07:17:00,11.5,9.4,30.38,NW,319,0.0,0.0,91,0.00,,CLR,0.00,0.00,VWS V14.01,2013-01-14 13:17:00,
2013-01-14 07:22:00,11.5,9.4,30.38,NW,319,0.0,0.0,91,0.00,,CLR,0.00,0.00,VWS V14.01,2013-01-14 13:22:00,
2013-01-14 07:27:00,11.6,9.5,30.38,NW,319,0.0,0.0,91,0.00,,CLR,0.00,0.00,VWS V14.01,2013-01-14 13:27:00,
2013-01-14 07:32:00,11.6,9.5,30.39,NW,319,0.0,0.0,91,0.00,,CLR,0.00,0.00,VWS V14.01,2013-01-14 13:32:00,
2013-01-14 07:37:00,11.7,9.8,30.39,NW,319,0.0,0.0,92,0.00,,CLR,0.00,5.00,VWS V14.01,2013-01-14 13:37:00,
2013-01-14 07:42:00,11.9,10.0,30.39,NW,319,0.0,0.0,92,0.00,,CLR,0.00,5.00,VWS V14.01,2013-01-14 13:42:00,
2013-01-14 07:47:00,12.1,10.2,30.40,NW,319,0.0,0.0,92,0.00,,CLR,0.00,5.00,VWS V14.01,2013-01-14 13:47:00,
2013-01-14 07:52:00,12.4,10.5,30.40,NW,319,0.0,0.0,92,0.00,,CLR,0.00,5.00,VWS V14.01,2013-01-14 13:52:00,
2013-01-14 07:57:00,12.6,10.7,30.40,NW,319,0.0,0.0,92,0.00,,CLR,0.00,9.00,VWS V14.01,2013-01-14 13:57:00,
2013-01-14 08:02:00,12.9,11.0,30.41,NW,319,0.0,0.0,92,0.00,,CLR,0.00,11.00,VWS V14.01,2013-01-14 14:02:00,
2013-01-14 08:07:00,13.2,11.3,30.41,NW,319,0.0,0.0,92,0.00,,CLR,0.00,16.00,VWS V14.01,2013-01-14 14:07:00,
2013-01-14 08:12:00,13.5,11.6,30.41,NW,319,0.0,0.0,92,0.00,,CLR,0.00,14.00,VWS V14.01,2013-01-14 14:12:00,
2013-01-14 08:17:00,13.8,12.1,30.41,NW,319,0.0,0.0,93,0.00,,CLR,0.00,18.00,VWS V14.01,2013-01-14 14:17:00,
2013-01-14 08:22:00,14.2,12.6,30.41,NW,319,0.0,0.0,93,0.00,,CLR,0.00,23.00,VWS V14.01,2013-01-14 14:22:00,
2013-01-14 08:27:00,14.7,13.1,30.41,NW,319,0.0,0.0,93,0.00,,CLR,0.00,26.00,VWS V14.01,2013-01-14 14:27:00,
2013-01-14 08:32:00,15.1,13.4,30.40,NW,319,0.0,0.0,93,0.00,,CLR,0.00,39.00,VWS V14.01,2013-01-14 14:32:00,
2013-01-14 08:37:00,15.4,13.7,30.40,NW,319,0.0,0.0,93,0.00,,CLR,0.00,63.00,VWS V14.01,2013-01-14 14:37:00,
2013-01-14 08:42:00,15.8,14.1,30.40,NW,319,0.0,0.0,93,0.00,,CLR,0.00,56.00,VWS V14.01,2013-01-14 14:42:00,
2013-01-14 08:47:00,16.1,14.4,30.44,NW,319,0.0,0.0,93,0.00,,CLR,0.00,54.00,VWS V14.01,2013-01-14 14:47:00,
2013-01-14 08:52:00,16.4,14.7,30.44,NW,319,0.0,0.0,93,0.00,,CLR,0.00,54.00,VWS V14.01,2013-01-14 14:52:00,
2013-01-14 08:58:00,16.7,15.0,30.44,NW,319,0.0,0.0,93,0.00,,CLR,0.00,62.00,VWS V14.01,2013-01-14 14:58:00,
2013-01-14 09:03:00,17.0,15.1,30.44,NW,319,0.0,0.0,92,0.00,,SCT120,0.00,74.00,VWS V14.01,2013-01-14 15:03:00,
2013-01-14 09:08:00,17.3,15.4,30.44,NW,319,0.0,0.0,92,0.00,,SCT120,0.00,91.00,VWS V14.01,2013-01-14 15:08:00,
2013-01-14 09:13:00,17.7,15.8,30.44,NW,319,0.0,0.0,92,0.00,,SCT120,0.00,91.00,VWS V14.01,2013-01-14 15:13:00,
2013-01-14 09:18:00,18.0,15.8,30.44,NW,319,0.0,0.0,91,0.00,,SCT120,0.00,95.00,VWS V14.01,2013-01-14 15:18:00,
2013-01-14 09:23:00,18.2,15.8,30.44,NW,319,0.0,0.0,90,0.00,,SCT120,0.00,107.00,VWS V14.01,2013-01-14 15:23:00,
2013-01-14 09:28:00,18.5,15.8,30.44,NW,319,0.0,0.0,89,0.00,,SCT120,0.00,135.00,VWS V14.01,2013-01-14 15:28:00,
2013-01-14 09:33:00,18.8,15.8,30.44,NW,319,0.0,0.0,88,0.00,,SCT120,0.00,171.00,VWS V14.01,2013-01-14 15:33:00,
2013-01-14 09:38:00,19.0,15.8,30.44,NW,319,0.0,0.0,87,0.00,,SCT120,0.00,127.00,VWS V14.01,2013-01-14 15:38:00,
2013-01-14 09:43:00,19.1,15.3,30.44,NW,319,0.0,0.0,85,0.00,,SCT120,0.00,111.00,VWS V14.01,2013-01-14 15:43:00,
2013-01-14 09:48:00,19.3,15.5,30.45,NW,319,0.0,0.0,85,0.00,,SCT120,0.00,109.00,VWS V14.01,2013-01-14 15:48:00,
2013-01-14 09:53:00,19.6,15.6,30.45,NW,319,0.0,0.0,84,0.00,,SCT120,0.00,114.00,VWS V14.01,2013-01-14 15:53:00,
2013-01-14 09:58:00,19.7,15.1,30.45,NW,319,0.0,0.0,82,0.00,,SCT120,0.00,123.00,VWS V14.01,2013-01-14 15:58:00,
2013-01-14 10:03:00,19.7,15.1,30.47,NW,319,0.0,0.0,82,0.00,,CLR,0.00,121.00,VWS V14.01,2013-01-14 16:03:00,
2013-01-14 10:08:00,19.9,15.6,30.47,NW,319,0.0,0.0,83,0.00,,CLR,0.00,118.00,VWS V14.01,2013-01-14 16:08:00,
2013-01-14 10:13:00,20.2,15.9,30.47,NW,319,0.0,0.0,83,0.00,,CLR,0.00,139.00,VWS V14.01,2013-01-14 16:13:00,
2013-01-14 10:18:00,20.3,15.7,30.47,NW,319,0.0,0.0,82,0.00,,CLR,0.00,146.00,VWS V14.01,2013-01-14 16:18:00,
2013-01-14 10:23:00,20.5,15.6,30.47,NW,319,0.0,0.0,81,0.00,,CLR,0.00,146.00,VWS V14.01,2013-01-14 16:23:00,
2013-01-14 10:28:00,20.6,15.4,30.47,NNE,22,0.0,0.0,80,0.00,,CLR,0.00,190.00,VWS V14.01,2013-01-14 16:28:00,
2013-01-14 10:33:00,20.9,15.7,30.48,NNE,22,0.0,0.0,80,0.00,,CLR,0.00,148.00,VWS V14.01,2013-01-14 16:33:00,
2013-01-14 10:38:00,21.0,15.2,30.48,NNE,23,0.0,0.0,78,0.00,,CLR,0.00,169.00,VWS V14.01,2013-01-14 16:38:00,
2013-01-14 10:43:00,21.1,15.3,30.48,NNE,23,0.0,0.0,78,0.00,,CLR,0.00,181.00,VWS V14.01,2013-01-14 16:43:00,
2013-01-14 10:48:00,21.2,15.4,30.47,NNE,23,0.0,0.0,78,0.00,,CLR,0.00,190.00,VWS V14.01,2013-01-14 16:48:00,
2013-01-14 10:53:00,21.4,15.9,30.47,NNE,22,0.0,0.0,79,0.00,,CLR,0.00,163.00,VWS V14.01,2013-01-14 16:53:00,
2013-01-14 10:58:00,21.5,15.7,30.47,NNE,22,0.0,0.0,78,0.00,,CLR,0.00,163.00,VWS V14.01,2013-01-14 16:58:00,
2013-01-14 11:03:00,21.7,15.9,30.46,NNE,23,0.0,0.0,78,0.00,,SCT120,0.00,176.00,VWS V14.01,2013-01-14 17:03:00,
2013-01-14 11:08:00,21.7,15.6,30.46,NNE,23,0.0,0.0,77,0.00,,SCT120,0.00,142.00,VWS V14.01,2013-01-14 17:08:00,
2013-01-14 11:13:00,21.8,15.7,30.46,NNE,22,0.0,0.0,77,0.00,,SCT120,0.00,179.00,VWS V14.01,2013-01-14 17:13:00,
2013-01-14 11:19:00,21.8,15.7,30.47,NNE,23,0.0,0.0,77,0.00,,SCT120,0.00,229.00,VWS V14.01,2013-01-14 17:19:00,
2013-01-14 11:24:00,22.2,16.4,30.47,NNE,24,0.0,0.0,78,0.00,,SCT120,0.00,469.00,VWS V14.01,2013-01-14 17:24:00,
2013-01-14 11:29:00,22.6,16.8,30.47,NE,38,0.0,0.0,78,0.00,,SCT120,0.00,494.00,VWS V14.01,2013-01-14 17:29:00,
2013-01-14 11:34:00,23.3,17.2,30.46,ENE,71,0.0,0.0,77,0.00,,SCT120,0.00,496.00,VWS V14.01,2013-01-14 17:34:00,
2013-01-14 11:39:00,23.9,17.5,30.46,East,101,0.0,0.0,76,0.00,,SCT120,0.00,513.00,VWS V14.01,2013-01-14 17:39:00,
2013-01-14 11:44:00,24.5,17.7,30.46,East,101,0.0,0.0,75,0.00,,SCT120,0.00,151.00,VWS V14.01,2013-01-14 17:44:00,
2013-01-14 11:49:00,24.8,17.7,30.44,East,101,0.0,0.0,74,0.00,,SCT120,0.00,575.00,VWS V14.01,2013-01-14 17:49:00,
2013-01-14 11:54:00,25.3,18.2,30.44,ESE,115,0.0,0.0,74,0.00,,SCT120,0.00,512.00,VWS V14.01,2013-01-14 17:54:00,
2013-01-14 11:59:00,25.6,18.5,30.44,ESE,117,0.0,0.0,74,0.00,,SCT120,0.00,512.00,VWS V14.01,2013-01-14 17:59:00,
2013-01-14 12:04:00,25.9,18.5,30.43,ESE,105,0.0,0.0,73,0.00,,OVC120,0.00,536.00,VWS V14.01,2013-01-14 18:04:00,
2013-01-14 12:09:00,26.1,17.0,30.43,SE,124,0.0,0.0,68,0.00,,OVC120,0.00,520.00,VWS V14.01,2013-01-14 18:09:00,
2013-01-14 12:14:00,26.4,18.0,30.43,East,82,0.0,0.0,70,0.00,,OVC120,0.00,517.00,VWS V14.01,2013-01-14 18:14:00,
2013-01-14 12:19:00,26.6,17.8,30.43,East,99,0.0,0.0,69,0.00,,OVC120,0.00,510.00,VWS V14.01,2013-01-14 18:19:00,
2013-01-14 12:24:00,27.0,19.5,30.43,NE,52,0.0,0.0,73,0.00,,OVC120,0.00,504.00,VWS V14.01,2013-01-14 18:24:00,
2013-01-14 12:29:00,27.3,18.8,30.43,NE,53,0.0,0.0,70,0.00,,OVC120,0.00,501.00,VWS V14.01,2013-01-14 18:29:00,
2013-01-14 12:34:00,27.3,18.5,30.41,ENE,69,0.0,0.0,69,0.00,,OVC120,0.00,506.00,VWS V14.01,2013-01-14 18:34:00,
2013-01-14 12:39:00,27.6,19.8,30.41,North,355,0.0,0.0,72,0.00,,OVC120,0.00,506.00,VWS V14.01,2013-01-14 18:39:00,
2013-01-14 12:44:00,27.7,18.2,30.41,East,101,0.0,0.0,67,0.00,,OVC120,0.00,506.00,VWS V14.01,2013-01-14 18:44:00,
2013-01-14 12:49:00,27.8,19.0,30.40,ENE,71,0.0,0.0,69,0.00,,OVC120,0.00,506.00,VWS V14.01,2013-01-14 18:49:00,
2013-01-14 12:54:00,28.0,20.2,30.40,NNE,33,0.0,0.0,72,0.00,,OVC120,0.00,499.00,VWS V14.01,2013-01-14 18:54:00,
2013-01-14 12:59:00,28.4,19.9,30.40,NNE,13,0.0,0.0,70,0.00,,OVC120,0.00,496.00,VWS V14.01,2013-01-14 18:59:00,
2013-01-14 13:04:00,28.6,19.7,30.39,East,95,0.0,0.0,69,0.00,,CLR,0.00,496.00,VWS V14.01,2013-01-14 19:04:00,
2013-01-14 13:09:00,28.7,18.8,30.39,ENE,78,0.0,0.0,66,0.00,,CLR,0.00,490.00,VWS V14.01,2013-01-14 19:09:00,
2013-01-14 13:14:00,28.8,19.9,30.39,ESE,106,0.0,0.0,69,0.00,,CLR,0.00,490.00,VWS V14.01,2013-01-14 19:14:00,
2013-01-14 13:19:00,29.0,19.8,30.38,ENE,71,0.0,0.0,68,0.00,,CLR,0.00,494.00,VWS V14.01,2013-01-14 19:19:00,
2013-01-14 13:25:00,29.3,19.0,30.38,ENE,67,0.0,0.0,65,0.00,,CLR,0.00,487.00,VWS V14.01,2013-01-14 19:25:00,
2013-01-14 13:30:00,29.5,19.6,30.37,SE,127,0.0,0.0,66,0.00,,CLR,0.00,487.00,VWS V14.01,2013-01-14 19:30:00,
2013-01-14 13:35:00,29.8,19.5,30.37,NE,34,0.0,0.0,65,0.00,,CLR,0.00,482.00,VWS V14.01,2013-01-14 19:35:00,
2013-01-14 13:40:00,30.1,19.8,30.37,NNE,13,0.0,0.0,65,0.00,,CLR,0.00,482.00,VWS V14.01,2013-01-14 19:40:00,
2013-01-14 13:45:00,30.2,19.5,30.37,NE,49,0.0,0.0,64,0.00,,CLR,0.00,487.00,VWS V14.01,2013-01-14 19:45:00,
2013-01-14 13:50:00,30.1,19.4,30.37,SSE,148,0.0,0.0,64,0.00,,CLR,0.00,487.00,VWS V14.01,2013-01-14 19:50:00,
2013-01-14 13:55:00,30.4,20.4,30.37,North,9,0.0,0.0,66,0.01,,CLR,0.01,485.00,VWS V14.01,2013-01-14 19:55:00,
2013-01-14 14:00:00,30.7,20.7,30.36,East,92,0.0,0.0,66,0.01,,CLR,0.01,485.00,VWS V14.01,2013-01-14 20:00:00,
2013-01-14 14:05:00,30.8,20.1,30.36,NNE,33,0.0,0.0,64,0.01,,CLR,0.01,483.00,VWS V14.01,2013-01-14 20:05:00,
2013-01-14 14:10:00,31.0,21.0,30.36,ESE,115,0.0,0.0,66,0.01,,CLR,0.01,480.00,VWS V14.01,2013-01-14 20:10:00,
2013-01-14 14:15:00,31.1,20.4,30.36,SE,143,0.0,0.0,64,0.01,,CLR,0.01,471.00,VWS V14.01,2013-01-14 20:15:00,
2013-01-14 14:20:00,31.2,21.5,30.36,ENE,74,0.0,0.0,67,0.01,,CLR,0.01,461.00,VWS V14.01,2013-01-14 20:20:00,
2013-01-14 14:25:00,31.4,20.6,30.36,NNE,24,0.0,0.0,64,0.01,,CLR,0.01,452.00,VWS V14.01,2013-01-14 20:25:00,
2013-01-14 14:30:00,31.5,21.1,30.36,North,360,0.0,0.0,65,0.01,,CLR,0.01,438.00,VWS V14.01,2013-01-14 20:30:00,
2013-01-14 14:35:00,31.7,20.9,30.36,NNE,32,0.0,0.0,64,0.01,,CLR,0.01,431.00,VWS V14.01,2013-01-14 20:35:00,
2013-01-14 14:40:00,31.9,20.8,30.36,North,360,0.0,0.0,63,0.01,,CLR,0.01,418.00,VWS V14.01,2013-01-14 20:40:00,
2013-01-14 14:45:00,31.9,20.4,30.36,NE,40,0.0,0.0,62,0.01,,CLR,0.01,410.00,VWS V14.01,2013-01-14 20:45:00,
2013-01-14 14:50:00,32.2,21.4,30.36,North,360,0.0,0.0,64,0.01,,CLR,0.01,397.00,VWS V14.01,2013-01-14 20:50:00,
2013-01-14 14:55:00,32.3,21.1,30.36,NE,40,0.0,0.0,63,0.01,,CLR,0.01,387.00,VWS V14.01,2013-01-14 20:55:00,
2013-01-14 15:01:00,32.3,21.5,30.36,ENE,61,0.0,0.0,64,0.00,,CLR,0.01,373.00,VWS V14.01,2013-01-14 21:01:00,
2013-01-14 15:06:00,32.3,21.5,30.36,NNE,33,0.0,0.0,64,0.00,,CLR,0.01,360.00,VWS V14.01,2013-01-14 21:06:00,
2013-01-14 15:11:00,32.2,20.7,30.36,NNE,32,0.0,0.0,62,0.00,,CLR,0.01,352.00,VWS V14.01,2013-01-14 21:11:00,
2013-01-14 15:16:00,32.3,21.5,30.36,NNE,15,0.0,0.0,64,0.00,,CLR,0.01,338.00,VWS V14.01,2013-01-14 21:16:00,
2013-01-14 15:21:00,32.1,21.3,30.36,East,83,0.0,0.0,64,0.00,,CLR,0.01,323.00,VWS V14.01,2013-01-14 21:21:00,
2013-01-14 15:26:00,32.2,21.0,30.36,NE,49,0.0,2.0,63,0.00,,CLR,0.01,311.00,VWS V14.01,2013-01-14 21:26:00,
2013-01-14 15:31:00,32.3,21.1,30.36,NE,45,0.0,0.0,63,0.00,,CLR,0.01,299.00,VWS V14.01,2013-01-14 21:31:00,
2013-01-14 15:36:00,32.5,21.3,30.36,NNE,17,0.0,1.0,63,0.00,,CLR,0.01,287.00,VWS V14.01,2013-01-14 21:36:00,
2013-01-14 15:41:00,32.4,20.9,30.36,NNE,32,0.0,4.0,62,0.00,,CLR,0.01,272.00,VWS V14.01,2013-01-14 21:41:00,
2013-01-14 15:46:00,32.3,20.0,30.35,NE,55,0.0,3.0,60,0.00,,CLR,0.01,262.00,VWS V14.01,2013-01-14 21:46:00,
2013-01-14 15:51:00,32.4,20.5,30.35,NNE,21,1.0,2.0,61,0.00,,CLR,0.01,246.00,VWS V14.01,2013-01-14 21:51:00,
2013-01-14 15:56:00,32.3,20.0,30.35,East,94,2.0,3.0,60,0.00,,CLR,0.01,232.00,VWS V14.01,2013-01-14 21:56:00,
2013-01-14 16:01:00,32.4,20.9,30.35,NE,40,0.0,1.0,62,0.00,,CLR,0.01,218.00,VWS V14.01,2013-01-14 22:01:00,
2013-01-14 16:06:00,32.5,20.9,30.35,NNE,29,0.0,1.0,62,0.00,,CLR,0.01,204.00,VWS V14.01,2013-01-14 22:06:00,
2013-01-14 16:11:00,32.5,20.9,30.35,NNE,31,0.0,1.0,62,0.00,,CLR,0.01,190.00,VWS V14.01,2013-01-14 22:11:00,
2013-01-14 16:16:00,32.4,20.5,30.36,NNE,30,0.0,1.0,61,0.00,,CLR,0.01,176.00,VWS V14.01,2013-01-14 22:16:00,
2013-01-14 16:21:00,32.2,20.3,30.36,NE,42,0.0,1.0,61,0.00,,CLR,0.01,162.00,VWS V14.01,2013-01-14 22:21:00,
2013-01-14 16:26:00,32.0,20.5,30.36,NE,43,0.0,1.0,62,0.00,,CLR,0.01,146.00,VWS V14.01,2013-01-14 22:26:00,
2013-01-14 16:31:00,31.8,20.3,30.35,NE,43,0.0,1.0,62,0.00,,CLR,0.01,127.00,VWS V14.01,2013-01-14 22:31:00,
2013-01-14 16:36:00,31.6,20.1,30.35,ENE,78,0.0,1.0,62,0.00,,CLR,0.01,109.00,VWS V14.01,2013-01-14 22:36:00,
2013-01-14 16:41:00,31.4,19.1,30.35,NNE,17,1.0,2.0,60,0.00,,CLR,0.01,93.00,VWS V14.01,2013-01-14 22:41:00,
2013-01-14 16:46:00,31.0,18.8,30.35,NE,42,0.0,1.0,60,0.00,,CLR,0.01,72.00,VWS V14.01,2013-01-14 22:46:00,
2013-01-14 16:51:00,30.7,18.9,30.35,NE,42,0.0,0.0,61,0.00,,CLR,0.01,62.00,VWS V14.01,2013-01-14 22:51:00,
2013-01-14 16:56:00,30.3,18.1,30.35,East,90,0.0,1.0,60,0.00,,CLR,0.01,40.00,VWS V14.01,2013-01-14 22:56:00,
2013-01-14 17:01:00,30.0,18.2,30.35,East,88,0.0,0.0,61,0.00,,CLR,0.01,25.00,VWS V14.01,2013-01-14 23:01:00,
2013-01-14 17:06:00,29.6,18.2,30.35,East,88,0.0,0.0,62,0.00,,CLR,0.01,18.00,VWS V14.01,2013-01-14 23:06:00,
2013-01-14 17:11:00,29.2,18.2,30.35,East,89,0.0,0.0,63,0.00,,CLR,0.01,9.00,VWS V14.01,2013-01-14 23:11:00,
2013-01-14 17:16:00,28.7,17.7,30.34,NE,46,0.0,2.0,63,0.00,,CLR,0.01,5.00,VWS V14.01,2013-01-14 23:16:00,
2013-01-14 17:21:00,28.1,17.5,30.34,NE,45,0.0,0.0,64,0.00,,CLR,0.01,0.00,VWS V14.01,2013-01-14 23:21:00,
2013-01-14 17:27:00,27.7,17.5,30.34,NE,46,0.0,0.0,65,0.00,,CLR,0.01,0.00,VWS V14.01,2013-01-14 23:27:00,
2013-01-14 17:32:00,27.3,17.5,30.34,NE,46,0.0,0.0,66,0.00,,CLR,0.01,0.00,VWS V14.01,2013-01-14 23:32:00,
2013-01-14 17:37:00,27.0,17.5,30.34,NE,46,0.0,0.0,67,0.00,,CLR,0.01,0.00,VWS V14.01,2013-01-14 23:37:00,
2013-01-14 17:42:00,26.5,17.4,30.34,NE,45,0.0,0.0,68,0.00,,CLR,0.01,0.00,VWS V14.01,2013-01-14 23:42:00,
2013-01-14 17:47:00,26.2,17.1,30.34,NE,46,0.0,0.0,68,0.00,,CLR,0.01,0.00,VWS V14.01,2013-01-14 23:47:00,
2013-01-14 17:52:00,25.8,17.4,30.34,NE,45,0.0,0.0,70,0.00,,CLR,0.01,0.00,VWS V14.01,2013-01-14 23:52:00,
2013-01-14 17:57:00,25.5,17.4,30.34,NE,43,0.0,0.0,71,0.00,,CLR,0.01,0.00,VWS V14.01,2013-01-14 23:57:00,
2013-01-14 18:02:00,25.2,17.5,30.34,NE,43,0.0,0.0,72,0.00,,CLR,0.01,0.00,VWS V14.01,2013-01-15 00:02:00,
2013-01-14 18:07:00,24.9,17.5,30.34,NE,43,0.0,0.0,73,0.00,,CLR,0.01,0.00,VWS V14.01,2013-01-15 00:07:00,
2013-01-14 18:12:00,24.7,17.6,30.34,NE,43,0.0,0.0,74,0.00,,CLR,0.01,0.00,VWS V14.01,2013-01-15 00:12:00,
2013-01-14 18:17:00,24.5,17.7,30.34,NE,43,0.0,0.0,75,0.00,,CLR,0.01,0.00,VWS V14.01,2013-01-15 00:17:00,
2013-01-14 18:22:00,24.3,17.5,30.34,NE,42,0.0,0.0,75,0.00,,CLR,0.01,0.00,VWS V14.01,2013-01-15 00:22:00,
2013-01-14 18:27:00,24.0,17.5,30.34,NE,43,0.0,0.0,76,0.00,,CLR,0.01,0.00,VWS V14.01,2013-01-15 00:27:00,
2013-01-14 18:32:00,23.9,17.8,30.34,NE,42,0.0,0.0,77,0.00,,CLR,0.01,0.00,VWS V14.01,2013-01-15 00:32:00,
2013-01-14 18:37:00,23.6,17.5,30.34,NE,43,0.0,0.0,77,0.00,,CLR,0.01,0.00,VWS V14.01,2013-01-15 00:37:00,
2013-01-14 18:42:00,23.4,17.3,30.34,NE,42,0.0,1.0,77,0.00,,CLR,0.01,0.00,VWS V14.01,2013-01-15 00:42:00,
2013-01-14 18:47:00,23.3,17.2,30.34,NE,43,0.0,0.0,77,0.00,,CLR,0.01,0.00,VWS V14.01,2013-01-15 00:47:00,
2013-01-14 18:52:00,23.1,17.3,30.34,NE,42,0.0,1.0,78,0.00,,CLR,0.01,0.00,VWS V14.01,2013-01-15 00:52:00,
2013-01-14 18:57:00,22.8,17.0,30.34,NE,43,0.0,0.0,78,0.00,,CLR,0.01,0.00,VWS V14.01,2013-01-15 00:57:00,
2013-01-14 19:02:00,22.6,17.1,30.34,NE,42,0.0,2.0,79,0.00,,CLR,0.01,0.00,VWS V14.01,2013-01-15 01:02:00,
2013-01-14 19:07:00,22.5,17.0,30.34,NE,43,0.0,0.0,79,0.00,,CLR,0.01,0.00,VWS V14.01,2013-01-15 01:07:00,
2013-01-14 19:12:00,22.4,16.9,30.34,NE,43,0.0,0.0,79,0.00,,CLR,0.01,0.00,VWS V14.01,2013-01-15 01:12:00,
2013-01-14 19:17:00,22.2,17.0,30.34,NE,43,0.0,0.0,80,0.00,,CLR,0.01,0.00,VWS V14.01,2013-01-15 01:17:00,
2013-01-14 19:22:00,22.1,16.9,30.34,NE,43,0.0,0.0,80,0.00,,CLR,0.01,0.00,VWS V14.01,2013-01-15 01:22:00,
2013-01-14 19:27:00,22.0,16.8,30.34,NE,43,0.0,0.0,80,0.00,,CLR,0.01,0.00,VWS V14.01,2013-01-15 01:27:00,
2013-01-14 19:33:00,21.8,16.9,30.34,NE,42,0.0,0.0,81,0.00,,CLR,0.01,0.00,VWS V14.01,2013-01-15 01:33:00,
2013-01-14 19:38:00,21.6,16.7,30.34,NE,43,0.0,0.0,81,0.00,,CLR,0.01,0.00,VWS V14.01,2013-01-15 01:38:00,
2013-01-14 19:43:00,21.5,16.6,30.34,NE,43,0.0,0.0,81,0.00,,CLR,0.01,0.00,VWS V14.01,2013-01-15 01:43:00,
2013-01-14 19:48:00,21.3,16.7,30.34,NE,43,0.0,0.0,82,0.00,,CLR,0.01,0.00,VWS V14.01,2013-01-15 01:48:00,
2013-01-14 19:53:00,21.2,16.6,30.34,NE,43,0.0,0.0,82,0.00,,CLR,0.01,0.00,VWS V14.01,2013-01-15 01:53:00,
2013-01-14 19:58:00,21.0,16.7,30.34,NE,43,0.0,0.0,83,0.00,,CLR,0.01,0.00,VWS V14.01,2013-01-15 01:58:00,
2013-01-14 20:03:00,20.9,16.6,30.34,NE,43,0.0,0.0,83,0.00,,CLR,0.01,0.00,VWS V14.01,2013-01-15 02:03:00,
2013-01-14 20:08:00,20.8,16.5,30.34,NE,42,0.0,0.0,83,0.00,,CLR,0.01,0.00,VWS V14.01,2013-01-15 02:08:00,
2013-01-14 20:13:00,20.7,16.4,30.34,NE,43,0.0,0.0,83,0.00,,CLR,0.01,0.00,VWS V14.01,2013-01-15 02:13:00,
2013-01-14 20:18:00,20.6,16.3,30.34,NE,42,0.0,0.0,83,0.00,,CLR,0.01,0.00,VWS V14.01,2013-01-15 02:18:00,
2013-01-14 20:23:00,20.4,16.1,30.34,NE,42,0.0,0.0,83,0.00,,CLR,0.01,0.00,VWS V14.01,2013-01-15 02:23:00,
2013-01-14 20:28:00,20.4,16.1,30.34,NE,43,0.0,0.0,83,0.00,,CLR,0.01,0.00,VWS V14.01,2013-01-15 02:28:00,
2013-01-14 20:33:00,20.2,15.9,30.34,NE,43,0.0,0.0,83,0.00,,CLR,0.01,0.00,VWS V14.01,2013-01-15 02:33:00,
2013-01-14 20:38:00,20.0,15.7,30.34,NE,42,0.0,0.0,83,0.00,,CLR,0.01,0.00,VWS V14.01,2013-01-15 02:38:00,
2013-01-14 20:43:00,19.9,15.6,30.34,NE,43,0.0,0.0,83,0.00,,CLR,0.01,0.00,VWS V14.01,2013-01-15 02:43:00,
2013-01-14 20:48:00,19.7,15.4,30.34,NE,43,0.0,0.0,83,0.00,,CLR,0.01,0.00,VWS V14.01,2013-01-15 02:48:00,
2013-01-14 20:53:00,19.7,15.4,30.34,NE,43,0.0,0.0,83,0.00,,CLR,0.01,0.00,VWS V14.01,2013-01-15 02:53:00,
2013-01-14 20:58:00,19.5,15.2,30.34,NE,42,0.0,0.0,83,0.00,,CLR,0.01,0.00,VWS V14.01,2013-01-15 02:58:00,
2013-01-14 21:03:00,19.2,14.9,30.34,NE,43,0.0,0.0,83,0.00,,CLR,0.01,0.00,VWS V14.01,2013-01-15 03:03:00,
2013-01-14 21:08:00,19.1,15.1,30.34,NE,42,0.0,0.0,84,0.00,,CLR,0.01,0.00,VWS V14.01,2013-01-15 03:08:00,
2013-01-14 21:13:00,18.9,14.9,30.34,NE,43,0.0,0.0,84,0.00,,CLR,0.01,0.00,VWS V14.01,2013-01-15 03:13:00,
2013-01-14 21:18:00,18.8,14.8,30.34,NE,43,0.0,0.0,84,0.00,,CLR,0.01,0.00,VWS V14.01,2013-01-15 03:18:00,
2013-01-14 21:23:00,18.7,14.9,30.34,NE,42,0.0,0.0,85,0.00,,CLR,0.01,0.00,VWS V14.01,2013-01-15 03:23:00,
2013-01-14 21:28:00,18.6,14.9,30.34,NE,42,0.0,0.0,85,0.00,,CLR,0.01,0.00,VWS V14.01,2013-01-15 03:28:00,
2013-01-14 21:33:00,18.5,14.8,30.35,NE,43,0.0,0.0,85,0.00,,CLR,0.01,0.00,VWS V14.01,2013-01-15 03:33:00,
2013-01-14 21:38:00,18.3,14.6,30.35,NE,43,0.0,0.0,85,0.00,,CLR,0.01,0.00,VWS V14.01,2013-01-15 03:38:00,
2013-01-14 21:43:00,18.2,14.7,30.35,NE,43,0.0,0.0,86,0.00,,CLR,0.01,0.00,VWS V14.01,2013-01-15 03:43:00,
2013-01-14 21:48:00,18.1,14.6,30.35,NE,43,0.0,0.0,86,0.00,,CLR,0.01,0.00,VWS V14.01,2013-01-15 03:48:00,
2013-01-14 21:54:00,18.1,14.6,30.35,NE,43,0.0,0.0,86,0.00,,CLR,0.01,0.00,VWS V14.01,2013-01-15 03:54:00,
2013-01-14 21:59:00,18.1,14.9,30.35,NE,43,0.0,0.0,87,0.00,,CLR,0.01,0.00,VWS V14.01,2013-01-15 03:59:00,
2013-01-14 22:04:00,18.0,14.8,30.35,NE,42,0.0,0.0,87,0.00,,CLR,0.01,0.00,VWS V14.01,2013-01-15 04:04:00,
2013-01-14 22:09:00,18.0,14.8,30.35,NE,43,0.0,0.0,87,0.00,,CLR,0.01,0.00,VWS V14.01,2013-01-15 04:09:00,
2013-01-14 22:14:00,17.9,14.7,30.35,NE,43,0.0,0.0,87,0.00,,CLR,0.01,0.00,VWS V14.01,2013-01-15 04:14:00,
2013-01-14 22:19:00,17.9,14.7,30.35,NE,43,0.0,0.0,87,0.00,,CLR,0.01,0.00,VWS V14.01,2013-01-15 04:19:00,
2013-01-14 22:24:00,17.7,14.2,30.35,NE,42,0.0,0.0,86,0.00,,CLR,0.01,0.00,VWS V14.01,2013-01-15 04:24:00,
2013-01-14 22:29:00,17.6,14.4,30.35,NE,43,0.0,0.0,87,0.00,,CLR,0.01,0.00,VWS V14.01,2013-01-15 04:29:00,
2013-01-14 22:34:00,17.5,14.3,30.35,NE,42,0.0,0.0,87,0.00,,CLR,0.01,0.00,VWS V14.01,2013-01-15 04:34:00,
2013-01-14 22:39:00,17.5,14.3,30.35,NE,43,0.0,0.0,87,0.00,,CLR,0.01,0.00,VWS V14.01,2013-01-15 04:39:00,
2013-01-14 22:44:00,17.4,14.2,30.35,NE,42,0.0,0.0,87,0.00,,CLR,0.01,0.00,VWS V14.01,2013-01-15 04:44:00,
2013-01-14 22:49:00,17.3,14.1,30.35,NE,43,0.0,0.0,87,0.00,,CLR,0.01,0.00,VWS V14.01,2013-01-15 04:49:00,
2013-01-14 22:54:00,17.2,14.0,30.35,NE,43,0.0,0.0,87,0.00,,CLR,0.01,0.00,VWS V14.01,2013-01-15 04:54:00,
2013-01-14 22:59:00,17.1,13.9,30.35,NE,43,0.0,0.0,87,0.00,,CLR,0.01,0.00,VWS V14.01,2013-01-15 04:59:00,
2013-01-14 23:00:00,17.1,13.9,30.34,NE,43,0.0,0.0,87,0.00,,CLR,0.01,0.00,VWS V14.01,2013-01-15 05:00:00,
2013-01-14 23:04:00,17.0,13.8,30.34,NE,43,0.0,0.0,87,0.00,,CLR,0.01,0.00,VWS V14.01,2013-01-15 05:04:00,
2013-01-14 23:05:00,16.9,13.7,30.34,NE,42,0.0,0.0,87,0.00,,CLR,0.01,0.00,VWS V14.01,2013-01-15 05:05:00,
2013-01-14 23:06:00,16.9,13.7,30.34,NE,43,0.0,0.0,87,0.00,,CLR,0.01,0.00,VWS V14.01,2013-01-15 05:06:00,
2013-01-14 23:11:00,16.7,13.5,30.34,NE,42,0.0,0.0,87,0.00,,CLR,0.01,0.00,VWS V14.01,2013-01-15 05:11:00,
2013-01-14 23:16:00,16.6,13.4,30.34,NE,43,0.0,0.0,87,0.00,,CLR,0.01,0.00,VWS V14.01,2013-01-15 05:16:00,
2013-01-14 23:21:00,16.5,13.3,30.34,NE,43,0.0,0.0,87,0.00,,CLR,0.01,0.00,VWS V14.01,2013-01-15 05:21:00,
2013-01-14 23:26:00,16.3,13.1,30.34,NE,42,0.0,0.0,87,0.00,,CLR,0.01,0.00,VWS V14.01,2013-01-15 05:26:00,
2013-01-14 23:31:00,16.2,13.0,30.34,NE,42,0.0,0.0,87,0.00,,CLR,0.01,0.00,VWS V14.01,2013-01-15 05:31:00,
2013-01-14 23:36:00,16.0,12.8,30.34,NE,43,0.0,0.0,87,0.00,,CLR,0.01,0.00,VWS V14.01,2013-01-15 05:36:00,
2013-01-14 23:41:00,15.9,12.7,30.34,NE,43,0.0,0.0,87,0.00,,CLR,0.01,0.00,VWS V14.01,2013-01-15 05:41:00,
2013-01-14 23:46:00,15.9,13.0,30.34,NE,42,0.0,0.0,88,0.00,,CLR,0.01,0.00,VWS V14.01,2013-01-15 05:46:00,
2013-01-14 23:51:00,15.8,12.9,30.34,NE,42,0.0,0.0,88,0.00,,CLR,0.01,0.00,VWS V14.01,2013-01-15 05:51:00,
2013-01-14 23:56:00,15.7,12.8,30.34,NE,43,0.0,0.0,88,0.00,,CLR,0.01,0.00,VWS V14.01,2013-01-15 05:56:00,